Time;durP1;ratioP1;P1;durP2;ratioP2;P2;SDS_P1;SDS_P2;PMS_P1;PMS_P2;Temp;Humidity;BMP_temperature;BMP_pressure;BME280_temperature;BME280_humidity;BME280_pressure;Samples;Min_cycle;Max_cycle;Signal;HPM_P1;HPM_P2
2023/07/16 00:00:13;;;;;;;;;;;;;;;23.31;40.22;100919.50;4132438;28;19922;-59
2023/07/16 00:02:15;;;;;;;;;;;;;;;23.29;40.52;100919.63;4143526;28;19998;-59
2023/07/16 00:04:17;;;;;;;;;;;;;;;23.31;40.21;100921.31;4155630;28;19933;-59
2023/07/16 00:06:19;;;;;;;;;;;;;;;23.29;40.20;100916.06;4164714;28;19946;-58
2023/07/16 00:08:21;;;;;;;;;;;;;;;23.27;40.39;100912.69;4135841;28;19944;-58
2023/07/16 00:10:23;;;;;;;;;;;;;;;23.27;40.35;100921.59;4163381;28;20011;-58
2023/07/16 00:12:25;;;;;;;;;;;;;;;23.28;40.50;100917.06;4162847;28;20422;-58
2023/07/16 00:14:26;;;;;;;;;;;;;;;23.27;40.47;100915.38;4153157;28;19921;-59
2023/07/16 00:16:28;;;;;;;;;;;;;;;23.26;40.63;100919.03;4164917;28;19921;-57
2023/07/16 00:18:30;;;;;;;;;;;;;;;23.22;40.55;100915.78;4154535;28;19925;-58
2023/07/16 00:20:32;;;;;;;;;;;;;;;23.25;40.28;100914.66;4161297;28;19928;-58
2023/07/16 00:22:33;;;;;;;;;;;;;;;23.24;40.57;100912.94;4162872;28;19933;-59
2023/07/16 00:24:35;;;;;;;;;;;;;;;23.23;40.51;100913.94;4153777;28;20304;-59
2023/07/16 00:26:37;;;;;;;;;;;;;;;23.23;40.26;100920.16;4164251;28;20012;-59
2023/07/16 00:28:38;;;;;;;;;;;;;;;23.23;40.11;100930.91;4159459;28;19944;-58
2023/07/16 00:30:40;;;;;;;;;;;;;;;23.22;40.26;100920.28;4152662;28;19956;-58
2023/07/16 00:32:41;;;;;;;;;;;;;;;23.21;40.37;100916.75;4149357;28;20019;-58
2023/07/16 00:34:43;;;;;;;;;;;;;;;23.20;40.40;100919.56;4158928;28;19955;-58
2023/07/16 00:36:45;;;;;;;;;;;;;;;23.19;40.43;100925.91;4148320;28;20312;-59
2023/07/16 00:38:46;;;;;;;;;;;;;;;23.20;40.52;100927.63;4152637;28;19928;-58
2023/07/16 00:40:48;;;;;;;;;;;;;;;23.18;40.51;100930.41;4154520;28;19928;-58
2023/07/16 00:42:50;;;;;;;;;;;;;;;23.18;40.68;100929.59;4148227;28;19921;-58
2023/07/16 00:44:51;;;;;;;;;;;;;;;23.17;40.63;100926.03;4159660;28;20401;-59
2023/07/16 00:46:53;;;;;;;;;;;;;;;23.16;40.36;100935.06;4148148;28;19921;-58
2023/07/16 00:48:54;;;;;;;;;;;;;;;23.16;40.72;100931.50;4149862;28;19953;-58
2023/07/16 00:50:56;;;;;;;;;;;;;;;23.17;40.34;100927.88;4156044;28;19956;-58
2023/07/16 00:52:58;;;;;;;;;;;;;;;23.14;40.37;100937.00;4147941;28;20323;-59
2023/07/16 00:54:59;;;;;;;;;;;;;;;23.14;40.85;100935.16;4159100;28;19921;-58
2023/07/16 00:57:01;;;;;;;;;;;;;;;23.14;40.80;100934.31;4148408;28;19930;-59
2023/07/16 00:59:03;;;;;;;;;;;;;;;23.13;40.80;100932.63;4148818;28;19922;-59
2023/07/16 01:01:04;;;;;;;;;;;;;;;23.13;40.66;100930.78;4157629;28;19922;-59
2023/07/16 01:03:07;;;;;;;;;;;;;;;23.12;40.67;100934.47;4147613;28;20364;-59
2023/07/16 01:05:09;;;;;;;;;;;;;;;23.13;40.85;100932.63;4157013;28;19921;-59
2023/07/16 01:07:13;;;;;;;;;;;;;;;23.12;40.69;100925.53;4149669;28;19932;-59
2023/07/16 01:09:16;;;;;;;;;;;;;;;23.11;40.44;100932.75;4147874;28;20408;-59
2023/07/16 01:11:18;;;;;;;;;;;;;;;23.12;40.86;100936.28;4153160;28;19972;-61
2023/07/16 01:13:20;;;;;;;;;;;;;;;23.11;40.63;100934.56;4164365;28;19925;-58
2023/07/16 01:15:22;;;;;;;;;;;;;;;23.10;40.64;100932.91;4154984;28;19926;-60
2023/07/16 01:17:23;;;;;;;;;;;;;;;23.08;40.59;100934.84;4160427;28;19928;-60
2023/07/16 01:19:25;;;;;;;;;;;;;;;23.08;40.89;100935.69;4160776;28;19928;-60
2023/07/16 01:21:32;;;;;;;;;;;;;;;23.07;40.94;100952.75;4152675;28;19982;-59
2023/07/16 01:23:39;;;;;;;;;;;;;;;23.07;40.74;100946.56;4163946;28;19921;-59
2023/07/16 01:25:47;;;;;;;;;;;;;;;23.06;41.05;100944.84;4154579;28;19987;-59
2023/07/16 01:27:48;;;;;;;;;;;;;;;23.06;40.62;100944.84;4160930;28;19921;-59
2023/07/16 01:30:03;;;;;;;;;;;;;;;23.06;40.76;100955.59;4161384;28;19984;-59
2023/07/16 01:32:05;;;;;;;;;;;;;;;23.04;40.77;100955.72;4143596;28;19921;-60
2023/07/16 01:34:08;;;;;;;;;;;;;;;23.04;40.79;100958.41;4145883;28;20150;-60
2023/07/16 01:36:11;;;;;;;;;;;;;;;23.04;41.03;100958.41;4153356;28;19921;-60
2023/07/16 01:38:18;;;;;;;;;;;;;;;23.03;40.75;100956.69;4161268;28;19921;-59
2023/07/16 01:40:20;;;;;;;;;;;;;;;23.03;41.11;100962.06;4161440;28;19925;-59
2023/07/16 01:42:21;;;;;;;;;;;;;;;23.02;40.72;100960.34;4152780;28;20012;-59
2023/07/16 01:44:23;;;;;;;;;;;;;;;23.03;41.15;100959.38;4163596;28;19921;-59
2023/07/16 01:46:25;;;;;;;;;;;;;;;23.01;40.99;100961.34;4154239;28;20132;-59
2023/07/16 01:48:36;;;;;;;;;;;;;;;23.01;41.10;100961.34;4159426;28;19925;-59
2023/07/16 01:50:38;;;;;;;;;;;;;;;23.01;41.13;100969.38;4161725;28;19932;-58
2023/07/16 01:52:40;;;;;;;;;;;;;;;23.01;41.12;100965.88;4158080;28;19968;-59
2023/07/16 01:54:41;;;;;;;;;;;;;;;23.00;40.84;100974.88;4147157;28;19932;-58
2023/07/16 01:56:43;;;;;;;;;;;;;;;23.00;40.89;100972.19;4155191;28;20012;-60
2023/07/16 01:58:44;;;;;;;;;;;;;;;22.99;40.86;100976.72;4149532;28;20404;-59
2023/07/16 02:00:48;;;;;;;;;;;;;;;22.91;41.19;100963.94;4148193;28;19979;-59
2023/07/16 02:02:50;;;;;;;;;;;;;;;22.98;41.00;100983.06;4154479;28;20307;-60
2023/07/16 02:04:52;;;;;;;;;;;;;;;22.99;41.10;100971.38;4163495;28;19925;-59
2023/07/16 02:06:53;;;;;;;;;;;;;;;22.99;40.94;100979.41;4155574;28;19952;-60
2023/07/16 02:08:55;;;;;;;;;;;;;;;22.97;40.91;100984.88;4157800;28;20036;-59
2023/07/16 02:10:57;;;;;;;;;;;;;;;22.96;41.19;100980.50;4161599;28;20298;-59
2023/07/16 02:13:01;;;;;;;;;;;;;;;22.97;41.32;100987.56;4135194;28;19925;-59
2023/07/16 02:15:03;;;;;;;;;;;;;;;22.96;41.23;100985.03;4163362;28;20308;-59
2023/07/16 02:17:05;;;;;;;;;;;;;;;22.95;41.30;100978.81;4156694;28;20026;-58
2023/07/16 02:19:06;;;;;;;;;;;;;;;22.95;41.11;100996.72;4156029;28;19921;-59
2023/07/16 02:21:08;;;;;;;;;;;;;;;22.93;41.25;100988.81;4162549;28;19967;-59
2023/07/16 02:23:09;;;;;;;;;;;;;;;22.93;41.42;100996.88;4151095;28;19928;-59
2023/07/16 02:25:11;;;;;;;;;;;;;;;22.94;41.42;100989.66;4162960;28;19921;-59
2023/07/16 02:27:12;;;;;;;;;;;;;;;22.92;41.51;100995.16;4158911;28;19921;-59
2023/07/16 02:29:14;;;;;;;;;;;;;;;22.93;41.09;101006.72;4154138;28;19921;-59
2023/07/16 02:31:15;;;;;;;;;;;;;;;22.92;41.20;100997.84;4146505;28;19961;-60
2023/07/16 02:33:17;;;;;;;;;;;;;;;22.92;41.22;101002.38;4157921;28;19921;-59
2023/07/16 02:35:19;;;;;;;;;;;;;;;22.77;41.47;100983.00;4147289;28;19921;-59
2023/07/16 02:37:21;;;;;;;;;;;;;;;22.91;41.45;101003.34;4148779;28;20128;-60
2023/07/16 02:39:23;;;;;;;;;;;;;;;22.90;41.22;101010.50;4155604;28;19921;-60
2023/07/16 02:41:25;;;;;;;;;;;;;;;22.91;41.19;101014.06;4146806;28;19921;-59
2023/07/16 02:43:26;;;;;;;;;;;;;;;22.89;41.17;101014.19;4156396;28;19920;-59
2023/07/16 02:45:28;;;;;;;;;;;;;;;22.88;41.16;101009.81;4148474;28;19935;-60
2023/07/16 02:47:29;;;;;;;;;;;;;;;22.87;41.29;101016.16;4147937;28;19922;-59
2023/07/16 02:49:31;;;;;;;;;;;;;;;22.87;41.68;101023.31;4156765;28;19925;-59
2023/07/16 02:51:32;;;;;;;;;;;;;;;22.87;41.23;101017.97;4146795;28;19921;-58
2023/07/16 02:53:34;;;;;;;;;;;;;;;22.87;41.50;101015.28;4154519;28;19921;-59
2023/07/16 02:55:36;;;;;;;;;;;;;;;22.87;41.37;101023.31;4150770;28;19977;-59
2023/07/16 02:57:37;;;;;;;;;;;;;;;22.86;41.58;101013.59;4147874;28;20019;-59
2023/07/16 02:59:39;;;;;;;;;;;;;;;22.85;41.48;101014.56;4156096;28;19921;-59
2023/07/16 03:01:40;;;;;;;;;;;;;;;22.85;41.67;101020.78;4146754;28;20388;-59
2023/07/16 03:03:42;;;;;;;;;;;;;;;22.85;41.47;101019.94;4152866;28;20004;-59
2023/07/16 03:05:43;;;;;;;;;;;;;;;22.85;41.71;101020.78;4152492;28;19921;-59
2023/07/16 03:07:47;;;;;;;;;;;;;;;22.83;41.57;101017.38;4147747;28;19928;-59
2023/07/16 03:09:49;;;;;;;;;;;;;;;22.83;41.67;101025.41;4156363;28;19925;-59
2023/07/16 03:11:50;;;;;;;;;;;;;;;22.83;41.51;101027.25;4148185;28;19928;-58
2023/07/16 03:13:52;;;;;;;;;;;;;;;22.81;41.31;101024.72;4153861;28;19979;-59
2023/07/16 03:15:54;;;;;;;;;;;;;;;22.81;41.33;101022.88;4156621;28;19922;-59
2023/07/16 03:17:57;;;;;;;;;;;;;;;22.81;41.76;101030.06;4149566;28;20393;-60
2023/07/16 03:19:58;;;;;;;;;;;;;;;22.80;41.71;101037.25;4160465;28;20430;-59
2023/07/16 03:22:00;;;;;;;;;;;;;;;22.80;41.50;101031.03;4149353;28;19921;-59
2023/07/16 03:24:02;;;;;;;;;;;;;;;22.79;41.63;101027.50;4152465;28;19937;-59
2023/07/16 03:26:03;;;;;;;;;;;;;;;22.78;41.71;101033.00;4165772;28;19921;-58
2023/07/16 03:28:05;;;;;;;;;;;;;;;22.78;41.91;101038.34;4165651;28;19920;-59
2023/07/16 03:30:07;;;;;;;;;;;;;;;22.75;41.39;101034.09;4152759;28;19925;-59
2023/07/16 03:32:08;;;;;;;;;;;;;;;22.76;41.67;101033.13;4164584;28;19920;-58
2023/07/16 03:34:10;;;;;;;;;;;;;;;22.76;41.60;101037.63;4162224;28;20039;-59
2023/07/16 03:36:11;;;;;;;;;;;;;;;22.75;41.48;101036.78;4155689;28;20367;-59
2023/07/16 03:38:13;;;;;;;;;;;;;;;22.75;41.73;101046.66;4165584;28;19921;-59
2023/07/16 03:40:16;;;;;;;;;;;;;;;22.74;41.43;101040.44;4154733;28;19971;-59
2023/07/16 03:42:18;;;;;;;;;;;;;;;22.74;41.56;101047.63;4162809;28;19931;-59
2023/07/16 03:44:19;;;;;;;;;;;;;;;22.73;41.92;101040.56;4163722;28;19921;-59
2023/07/16 03:46:21;;;;;;;;;;;;;;;22.73;41.90;101051.28;4154387;28;20016;-59
2023/07/16 03:48:22;;;;;;;;;;;;;;;22.73;41.61;101052.13;4164128;28;20457;-59
2023/07/16 03:50:24;;;;;;;;;;;;;;;22.72;41.86;101045.06;4156090;28;19939;-59
2023/07/16 03:52:26;;;;;;;;;;;;;;;22.73;41.85;101056.66;4143179;28;19945;-60
2023/07/16 03:54:27;;;;;;;;;;;;;;;22.71;41.98;101051.44;4149854;28;20401;-59
2023/07/16 03:56:29;;;;;;;;;;;;;;;22.72;41.50;101053.09;4159904;28;19929;-59
2023/07/16 03:58:30;;;;;;;;;;;;;;;22.71;41.69;101047.88;4148422;28;20419;-59
2023/07/16 04:00:33;;;;;;;;;;;;;;;22.70;41.94;101057.75;4153627;28;19960;-58
2023/07/16 04:02:35;;;;;;;;;;;;;;;22.68;41.59;101051.66;4154470;28;20312;-59
2023/07/16 04:04:37;;;;;;;;;;;;;;;22.68;41.92;101048.16;4149621;28;19922;-59
2023/07/16 04:06:38;;;;;;;;;;;;;;;22.67;41.78;101049.97;4160031;28;19929;-59
2023/07/16 04:08:40;;;;;;;;;;;;;;;22.67;41.78;101055.31;4148479;28;19922;-60
2023/07/16 04:10:41;;;;;;;;;;;;;;;22.68;41.80;101070.44;4151540;28;19921;-60
2023/07/16 04:12:43;;;;;;;;;;;;;;;22.68;42.04;101058.88;4156096;28;20320;-59
2023/07/16 04:14:45;;;;;;;;;;;;;;;22.67;41.84;101070.56;4148567;28;19921;-60
2023/07/16 04:16:46;;;;;;;;;;;;;;;22.67;41.87;101070.56;4160255;28;19925;-59
2023/07/16 04:18:48;;;;;;;;;;;;;;;22.66;41.79;101064.34;4148142;28;19921;-59
2023/07/16 04:20:50;;;;;;;;;;;;;;;22.65;41.88;101059.97;4150731;28;19922;-59
2023/07/16 04:22:51;;;;;;;;;;;;;;;22.65;41.92;101062.66;4157858;28;19922;-59
2023/07/16 04:24:53;;;;;;;;;;;;;;;22.64;42.02;101067.16;4148513;28;20267;-59
2023/07/16 04:26:55;;;;;;;;;;;;;;;22.66;41.81;101072.38;4157977;28;20011;-59
2023/07/16 04:28:56;;;;;;;;;;;;;;;22.64;42.07;101072.50;4149584;28;20442;-60
2023/07/16 04:31:01;;;;;;;;;;;;;;;22.64;41.84;101072.50;4149223;28;20308;-59
2023/07/16 04:33:03;;;;;;;;;;;;;;;22.63;41.92;101068.13;4143833;28;19925;-59
2023/07/16 04:35:05;;;;;;;;;;;;;;;22.64;42.26;101082.41;4147156;28;20047;-58
2023/07/16 04:37:07;;;;;;;;;;;;;;;22.63;41.73;101094.94;4160163;28;20004;-59
2023/07/16 04:39:08;;;;;;;;;;;;;;;22.63;41.96;101084.22;4150557;28;19921;-59
2023/07/16 04:41:10;;;;;;;;;;;;;;;22.62;41.95;101084.34;4148925;28;19921;-59
2023/07/16 04:43:11;;;;;;;;;;;;;;;22.61;41.97;101088.88;4159099;28;19988;-59
2023/07/16 04:45:13;;;;;;;;;;;;;;;22.62;41.95;101087.03;4148070;28;20483;-59
2023/07/16 04:47:14;;;;;;;;;;;;;;;22.61;42.28;101085.31;4154885;28;19920;-60
2023/07/16 04:49:16;;;;;;;;;;;;;;;22.61;41.91;101088.88;4152020;28;20336;-59
2023/07/16 04:51:17;;;;;;;;;;;;;;;22.60;42.23;101095.19;4149194;28;19953;-59
2023/07/16 04:53:19;;;;;;;;;;;;;;;22.60;42.25;101087.16;4158860;28;20459;-59
2023/07/16 04:55:20;;;;;;;;;;;;;;;22.60;42.09;101089.84;4147739;28;19928;-59
2023/07/16 04:57:22;;;;;;;;;;;;;;;22.59;42.12;101088.13;4152562;28;21068;-60
2023/07/16 04:59:24;;;;;;;;;;;;;;;22.61;42.11;101096.91;4153340;28;19921;-59
2023/07/16 05:01:26;;;;;;;;;;;;;;;22.60;42.44;101100.56;4147644;28;19922;-60
2023/07/16 05:03:28;;;;;;;;;;;;;;;22.59;42.36;101096.16;4151853;28;20373;-59
2023/07/16 05:05:30;;;;;;;;;;;;;;;22.60;42.37;101099.69;4164319;28;20303;-60
2023/07/16 05:07:32;;;;;;;;;;;;;;;22.60;42.40;101113.97;4159701;28;19967;-59
2023/07/16 05:09:33;;;;;;;;;;;;;;;22.59;42.15;101111.38;4154919;28;19931;-60
2023/07/16 05:11:37;;;;;;;;;;;;;;;22.59;41.99;101114.06;4163693;28;19964;-59
2023/07/16 05:13:38;;;;;;;;;;;;;;;22.58;42.05;101115.91;4151898;28;20361;-59
2023/07/16 05:15:40;;;;;;;;;;;;;;;22.58;42.16;101110.53;4163281;28;19928;-59
2023/07/16 05:17:45;;;;;;;;;;;;;;;22.58;42.28;101115.91;4160908;28;19927;-59
2023/07/16 05:19:51;;;;;;;;;;;;;;;22.58;42.47;101118.59;4154595;28;19955;-60
2023/07/16 05:21:53;;;;;;;;;;;;;;;22.58;42.55;101115.91;4146603;28;19972;-59
2023/07/16 05:23:54;;;;;;;;;;;;;;;22.58;42.45;101112.38;4152625;28;19929;-59
2023/07/16 05:25:56;;;;;;;;;;;;;;;22.58;42.44;101112.38;4144798;28;19976;-59
2023/07/16 05:27:58;;;;;;;;;;;;;;;22.58;42.36;101117.75;4159537;28;20016;-59
2023/07/16 05:29:59;;;;;;;;;;;;;;;22.58;42.25;101117.75;4156727;28;19925;-59
2023/07/16 05:32:06;;;;;;;;;;;;;;;22.58;42.60;101115.06;4147726;28;19922;-59
2023/07/16 05:34:07;;;;;;;;;;;;;;;22.57;42.41;101118.72;4156581;28;20016;-59
2023/07/16 05:36:09;;;;;;;;;;;;;;;22.57;42.42;101113.34;4149542;28;19957;-59
2023/07/16 05:38:14;;;;;;;;;;;;;;;22.56;42.56;101117.84;4147362;28;19921;-58
2023/07/16 05:40:15;;;;;;;;;;;;;;;22.56;42.67;101120.53;4140728;28;19925;-59
2023/07/16 05:42:17;;;;;;;;;;;;;;;22.55;42.34;101118.81;4163989;28;19971;-59
2023/07/16 05:44:20;;;;;;;;;;;;;;;22.57;42.21;101126.75;4137284;28;19956;-59
2023/07/16 05:46:21;;;;;;;;;;;;;;;22.56;42.39;101125.88;4160370;28;19921;-60
2023/07/16 05:48:24;;;;;;;;;;;;;;;22.56;42.61;101125.03;4161984;28;19925;-59
2023/07/16 05:50:25;;;;;;;;;;;;;;;22.55;42.63;101126.84;4151441;28;19921;-59
2023/07/16 05:52:27;;;;;;;;;;;;;;;22.55;42.52;101129.53;4163840;28;19921;-59
2023/07/16 05:54:29;;;;;;;;;;;;;;;22.55;42.84;101128.69;4155447;28;19921;-59
2023/07/16 05:56:35;;;;;;;;;;;;;;;22.54;42.31;101127.88;4159455;28;19921;-59
2023/07/16 05:58:37;;;;;;;;;;;;;;;22.54;42.64;101133.22;4161488;28;19930;-59
2023/07/16 06:00:39;;;;;;;;;;;;;;;22.55;42.70;101153.66;4151269;28;19990;-59
2023/07/16 06:02:41;;;;;;;;;;;;;;;22.54;42.46;101137.72;4153606;28;19953;-59
2023/07/16 06:04:42;;;;;;;;;;;;;;;22.55;42.70;101139.41;4152995;28;20312;-59
2023/07/16 06:06:44;;;;;;;;;;;;;;;22.54;42.52;101149.31;4153036;28;19925;-59
2023/07/16 06:08:45;;;;;;;;;;;;;;;22.55;42.86;101142.09;4147069;28;19928;-59
2023/07/16 06:10:47;;;;;;;;;;;;;;;22.54;42.47;101137.72;4157498;28;19936;-59
2023/07/16 06:12:49;;;;;;;;;;;;;;;22.53;42.69;101150.28;4147298;28;19930;-59
2023/07/16 06:14:51;;;;;;;;;;;;;;;22.53;42.53;101150.28;4151131;28;19929;-59
2023/07/16 06:16:53;;;;;;;;;;;;;;;22.54;42.59;101151.13;4154485;28;20336;-58
2023/07/16 06:18:59;;;;;;;;;;;;;;;22.53;42.68;101161.00;4146706;28;19925;-59
2023/07/16 06:21:01;;;;;;;;;;;;;;;22.53;42.77;101163.69;4158253;28;19921;-59
2023/07/16 06:23:03;;;;;;;;;;;;;;;22.54;42.82;101161.84;4146806;28;20027;-59
2023/07/16 06:25:05;;;;;;;;;;;;;;;22.53;42.59;101163.69;4149891;28;19980;-61
2023/07/16 06:27:06;;;;;;;;;;;;;;;22.54;43.01;101167.19;4163159;28;19967;-59
2023/07/16 06:29:08;;;;;;;;;;;;;;;22.55;42.63;101168.91;4163027;28;20012;-58
2023/07/16 06:31:10;;;;;;;;;;;;;;;22.55;42.70;101169.75;4150865;28;20412;-58
2023/07/16 06:33:12;;;;;;;;;;;;;;;22.55;42.67;101166.22;4162121;28;20283;-58
2023/07/16 06:35:13;;;;;;;;;;;;;;;22.56;42.89;101168.78;4160673;28;19925;-58
2023/07/16 06:37:15;;;;;;;;;;;;;;;22.56;42.98;101173.31;4152824;28;20015;-58
2023/07/16 06:39:16;;;;;;;;;;;;;;;22.54;42.71;101178.78;4163046;28;19921;-59
2023/07/16 06:41:18;;;;;;;;;;;;;;;22.54;42.90;101181.47;4152932;28;20403;-59
2023/07/16 06:43:20;;;;;;;;;;;;;;;22.56;42.93;101173.31;4160329;28;19921;-58
2023/07/16 06:45:21;;;;;;;;;;;;;;;22.56;42.51;101173.31;4161543;28;19930;-59
2023/07/16 06:47:23;;;;;;;;;;;;;;;22.57;42.91;101183.06;4154822;28;19928;-59
2023/07/16 06:49:25;;;;;;;;;;;;;;;22.56;42.57;101178.66;4165565;28;19967;-58
2023/07/16 06:51:28;;;;;;;;;;;;;;;22.57;42.55;101175.00;4157677;28;19941;-58
2023/07/16 06:53:30;;;;;;;;;;;;;;;22.58;42.88;101182.09;4161885;28;19921;-59
2023/07/16 06:55:31;;;;;;;;;;;;;;;22.56;42.87;101174.13;4164707;28;19968;-59
2023/07/16 06:57:33;;;;;;;;;;;;;;;22.57;42.67;101183.88;4154917;28;19921;-60
2023/07/16 06:59:34;;;;;;;;;;;;;;;22.58;42.72;101174.88;4165374;28;19945;-57
2023/07/16 07:01:36;;;;;;;;;;;;;;;22.59;42.72;101178.41;4159305;28;19961;-58
2023/07/16 07:03:37;;;;;;;;;;;;;;;22.58;42.93;101180.25;4160144;28;19971;-58
2023/07/16 07:05:42;;;;;;;;;;;;;;;22.59;43.04;101171.22;4164977;28;19925;-58
2023/07/16 07:07:44;;;;;;;;;;;;;;;22.60;43.09;101188.16;4156489;28;20111;-58
2023/07/16 07:09:49;;;;;;;;;;;;;;;22.61;42.65;101174.66;4148900;28;19921;-59
2023/07/16 07:11:51;;;;;;;;;;;;;;;22.63;42.91;101177.19;4154748;28;19921;-58
2023/07/16 07:13:52;;;;;;;;;;;;;;;22.62;43.08;101173.66;4156367;28;19944;-58
2023/07/16 07:15:57;;;;;;;;;;;;;;;22.64;42.86;101170.88;4148831;28;20399;-59
2023/07/16 07:17:59;;;;;;;;;;;;;;;22.65;42.81;101175.25;4160873;28;19975;-58
2023/07/16 07:20:01;;;;;;;;;;;;;;;22.64;42.71;101171.72;4148750;28;19980;-58
2023/07/16 07:22:02;;;;;;;;;;;;;;;22.66;42.69;101166.22;4152786;28;19925;-58
2023/07/16 07:24:04;;;;;;;;;;;;;;;22.68;42.48;101166.97;4157341;28;19971;-59
2023/07/16 07:26:06;;;;;;;;;;;;;;;22.69;42.57;101174.03;4131882;28;20423;-58
2023/07/16 07:28:08;;;;;;;;;;;;;;;22.71;42.67;101181.94;4160848;28;19932;-58
2023/07/16 07:30:09;;;;;;;;;;;;;;;22.73;42.84;101180.84;4147680;28;20385;-60
2023/07/16 07:32:11;;;;;;;;;;;;;;;22.72;42.94;101176.44;4151471;28;19928;-59
2023/07/16 07:34:12;;;;;;;;;;;;;;;22.74;42.46;101173.66;4157689;28;19921;-58
2023/07/16 07:36:14;;;;;;;;;;;;;;;22.76;42.64;101177.06;4131678;28;19991;-58
2023/07/16 07:38:16;;;;;;;;;;;;;;;22.78;42.60;101175.97;4158837;28;19943;-58
2023/07/16 07:40:19;;;;;;;;;;;;;;;22.79;42.51;101177.66;4150411;28;19929;-59
2023/07/16 07:42:21;;;;;;;;;;;;;;;22.79;42.56;101172.28;4150411;28;19925;-58
2023/07/16 07:44:26;;;;;;;;;;;;;;;22.80;42.62;101174.00;4144118;28;19921;-61
2023/07/16 07:46:27;;;;;;;;;;;;;;;22.82;42.30;101181.94;4165651;28;20406;-58
2023/07/16 07:48:29;;;;;;;;;;;;;;;22.82;42.58;101171.22;4156003;28;20430;-59
2023/07/16 07:50:30;;;;;;;;;;;;;;;22.83;42.32;101175.59;4160717;28;20289;-58
2023/07/16 07:52:32;;;;;;;;;;;;;;;22.83;42.57;101172.91;4163781;28;19921;-58
2023/07/16 07:54:33;;;;;;;;;;;;;;;22.84;42.26;101182.66;4154160;28;19928;-58
2023/07/16 07:56:35;;;;;;;;;;;;;;;22.85;42.56;101181.69;4164966;28;20359;-58
2023/07/16 07:58:37;;;;;;;;;;;;;;;22.85;42.30;101183.53;4157153;28;20272;-59
2023/07/16 08:00:39;;;;;;;;;;;;;;;22.87;42.57;101187.78;4159281;28;19928;-58
2023/07/16 08:02:40;;;;;;;;;;;;;;;22.84;42.62;101185.34;4156553;28;20408;-58
2023/07/16 08:04:42;;;;;;;;;;;;;;;22.84;42.19;101185.34;4159558;28;19925;-58
2023/07/16 08:06:47;;;;;;;;;;;;;;;22.86;42.27;101186.09;4148647;28;19926;-61
2023/07/16 08:08:48;;;;;;;;;;;;;;;22.88;42.08;101186.81;4154267;28;20028;-59
2023/07/16 08:10:50;;;;;;;;;;;;;;;22.86;42.20;101178.03;4154074;28;19979;-58
2023/07/16 08:12:51;;;;;;;;;;;;;;;22.86;42.30;101185.25;4149098;28;20003;-59
2023/07/16 08:14:53;;;;;;;;;;;;;;;22.87;42.22;101182.44;4160330;28;20322;-59
2023/07/16 08:16:54;;;;;;;;;;;;;;;22.86;42.20;101186.09;4148722;28;19972;-58
2023/07/16 08:18:56;;;;;;;;;;;;;;;22.86;42.24;101185.25;4152047;28;19929;-58
2023/07/16 08:20:58;;;;;;;;;;;;;;;22.85;42.11;101180.84;4155716;28;19925;-59
2023/07/16 08:22:59;;;;;;;;;;;;;;;22.86;42.27;101188.75;4148425;28;19949;-59
2023/07/16 08:25:03;;;;;;;;;;;;;;;22.86;42.14;101177.19;4158191;28;19921;-59
2023/07/16 08:27:04;;;;;;;;;;;;;;;22.87;42.11;101190.47;4164429;28;19932;-59
2023/07/16 08:29:06;;;;;;;;;;;;;;;22.85;42.47;101179.00;4161654;28;19921;-58
2023/07/16 08:31:09;;;;;;;;;;;;;;;22.85;42.22;101186.22;4154281;28;19947;-58
2023/07/16 08:33:11;;;;;;;;;;;;;;;22.87;42.43;101186.91;4164454;28;20007;-58
2023/07/16 08:35:16;;;;;;;;;;;;;;;22.87;42.06;101189.59;4153653;28;20401;-60
2023/07/16 08:37:18;;;;;;;;;;;;;;;22.87;41.95;101190.47;4163245;28;19921;-61
2023/07/16 08:39:20;;;;;;;;;;;;;;;22.89;42.10;101185.84;4162147;28;19921;-61
2023/07/16 08:41:24;;;;;;;;;;;;;;;22.91;42.10;101193.75;4153374;28;19967;-58
2023/07/16 08:43:28;;;;;;;;;;;;;;;22.93;41.82;101191.78;4146941;28;19927;-58
2023/07/16 08:45:36;;;;;;;;;;;;;;;22.94;41.93;101194.38;4153966;28;20014;-60
2023/07/16 08:47:37;;;;;;;;;;;;;;;22.95;42.11;101189.84;4162665;28;19929;-60
2023/07/16 08:49:39;;;;;;;;;;;;;;;22.97;41.75;101188.75;4162312;28;19970;-59
2023/07/16 08:51:41;;;;;;;;;;;;;;;22.99;41.93;101185.97;4152987;28;19988;-61
2023/07/16 08:53:42;;;;;;;;;;;;;;;23.00;41.85;101194.84;4164397;28;19921;-58
2023/07/16 08:55:47;;;;;;;;;;;;;;;22.98;42.11;101194.97;4154786;28;19964;-58
2023/07/16 08:57:53;;;;;;;;;;;;;;;23.00;41.92;101200.22;4161878;28;19921;-59
2023/07/16 08:59:55;;;;;;;;;;;;;;;22.96;42.03;101188.88;4161597;28;19925;-59
2023/07/16 09:01:57;;;;;;;;;;;;;;;22.97;41.88;101198.63;4149014;28;19921;-58
2023/07/16 09:03:59;;;;;;;;;;;;;;;22.98;41.93;101201.19;4147836;28;20024;-58
2023/07/16 09:06:01;;;;;;;;;;;;;;;22.98;41.84;101208.38;4156170;28;19921;-58
2023/07/16 09:08:03;;;;;;;;;;;;;;;22.98;41.34;101198.50;4151250;28;19925;-58
2023/07/16 09:10:05;;;;;;;;;;;;;;;22.96;41.68;101203.13;4147255;28;19950;-60
2023/07/16 09:12:10;;;;;;;;;;;;;;;22.96;41.68;101202.28;4158446;28;19928;-59
2023/07/16 09:14:14;;;;;;;;;;;;;;;22.98;41.69;101195.81;4147691;28;19963;-59
2023/07/16 09:16:20;;;;;;;;;;;;;;;22.97;41.74;101198.63;4155108;28;20442;-58
2023/07/16 09:18:26;;;;;;;;;;;;;;;22.98;41.84;101195.81;4151188;28;19929;-58
2023/07/16 09:20:30;;;;;;;;;;;;;;;22.97;41.66;101206.69;4148083;28;20214;-58
2023/07/16 09:22:36;;;;;;;;;;;;;;;22.95;41.92;101189.84;4158711;28;19921;-58
2023/07/16 09:24:37;;;;;;;;;;;;;;;22.94;41.71;101202.41;4147590;28;19984;-58
2023/07/16 09:26:39;;;;;;;;;;;;;;;22.93;41.54;101200.72;4155105;28;19920;-59
2023/07/16 09:28:40;;;;;;;;;;;;;;;22.93;41.33;101197.16;4151343;28;19925;-58
2023/07/16 09:30:42;;;;;;;;;;;;;;;22.92;41.33;101199.00;4147375;28;19929;-59
2023/07/16 09:32:47;;;;;;;;;;;;;;;22.94;41.30;101196.19;4158234;28;20344;-58
2023/07/16 09:34:51;;;;;;;;;;;;;;;22.96;41.66;101202.28;4147451;28;19928;-59
2023/07/16 09:36:53;;;;;;;;;;;;;;;22.94;41.74;101198.88;4154250;28;19928;-60
2023/07/16 09:38:57;;;;;;;;;;;;;;;22.97;41.26;101207.50;4152270;28;19925;-58
2023/07/16 09:40:58;;;;;;;;;;;;;;;22.96;41.45;101204.97;4147565;28;20008;-59
2023/07/16 09:43:01;;;;;;;;;;;;;;;22.95;41.45;101206.81;4158516;28;19960;-59
2023/07/16 09:45:03;;;;;;;;;;;;;;;22.96;41.25;101207.66;4147566;28;19921;-59
2023/07/16 09:47:04;;;;;;;;;;;;;;;22.97;41.17;101207.50;4152514;28;19929;-59
2023/07/16 09:49:09;;;;;;;;;;;;;;;22.96;41.55;101205.81;4153528;28;19922;-58
2023/07/16 09:51:12;;;;;;;;;;;;;;;22.96;41.29;101215.69;4147110;28;19921;-59
2023/07/16 09:53:15;;;;;;;;;;;;;;;22.95;41.70;101214.84;4154509;28;20304;-60
2023/07/16 09:55:18;;;;;;;;;;;;;;;22.95;41.28;101214.84;4147199;28;20129;-59
2023/07/16 09:57:20;;;;;;;;;;;;;;;22.95;41.56;101211.31;4134869;28;19929;-59
2023/07/16 09:59:23;;;;;;;;;;;;;;;22.96;41.42;101202.28;4153857;28;19921;-59
2023/07/16 10:01:25;;;;;;;;;;;;;;;22.96;41.35;101202.28;4145930;28;19931;-58
2023/07/16 10:03:27;;;;;;;;;;;;;;;22.99;41.35;101207.41;4150916;28;20314;-59
2023/07/16 10:05:28;;;;;;;;;;;;;;;23.01;41.61;101193.88;4163597;28;19921;-57
2023/07/16 10:07:32;;;;;;;;;;;;;;;23.00;41.73;101198.38;4159069;28;19928;-58
2023/07/16 10:09:37;;;;;;;;;;;;;;;23.01;41.29;101194.72;4155023;28;19921;-59
2023/07/16 10:11:41;;;;;;;;;;;;;;;23.03;41.46;101189.25;4162519;28;19963;-58
2023/07/16 10:13:43;;;;;;;;;;;;;;;23.05;41.08;101185.47;4150806;28;19928;-59
2023/07/16 10:15:52;;;;;;;;;;;;;;;23.07;41.31;101183.47;4130582;28;19925;-60
2023/07/16 10:17:54;;;;;;;;;;;;;;;23.06;41.38;101178.25;4142647;28;19921;-59
2023/07/16 10:19:56;;;;;;;;;;;;;;;23.09;40.71;101188.75;4155184;28;20292;-59
2023/07/16 10:21:58;;;;;;;;;;;;;;;23.07;40.64;101178.13;4149318;28;19962;-59
2023/07/16 10:23:59;;;;;;;;;;;;;;;23.08;40.58;101174.47;4160541;28;20035;-60
2023/07/16 10:26:05;;;;;;;;;;;;;;;23.08;40.34;101176.31;4159770;28;19974;-59